sensor_id;sensor_type;location;lat;lon;timestamp;temperature;humidity
12726;DHT22;6427;49.754;6.106;2023-07-20T00:02:02;17.00;96.10
12726;DHT22;6427;49.754;6.106;2023-07-20T00:04:48;17.00;95.90
12726;DHT22;6427;49.754;6.106;2023-07-20T00:07:15;16.80;96.10
12726;DHT22;6427;49.754;6.106;2023-07-20T00:09:43;16.80;96.40
12726;DHT22;6427;49.754;6.106;2023-07-20T00:12:11;16.70;96.90
12726;DHT22;6427;49.754;6.106;2023-07-20T00:14:38;16.60;97.20
12726;DHT22;6427;49.754;6.106;2023-07-20T00:17:06;16.50;97.60
12726;DHT22;6427;49.754;6.106;2023-07-20T00:19:34;16.50;97.80
12726;DHT22;6427;49.754;6.106;2023-07-20T00:22:01;16.40;98.10
12726;DHT22;6427;49.754;6.106;2023-07-20T00:24:29;16.40;98.50
12726;DHT22;6427;49.754;6.106;2023-07-20T00:26:56;16.30;98.80
12726;DHT22;6427;49.754;6.106;2023-07-20T00:29:24;16.30;98.90
12726;DHT22;6427;49.754;6.106;2023-07-20T00:31:52;16.20;99.10
12726;DHT22;6427;49.754;6.106;2023-07-20T00:34:19;16.20;99.40
12726;DHT22;6427;49.754;6.106;2023-07-20T00:36:47;16.10;99.50
12726;DHT22;6427;49.754;6.106;2023-07-20T00:39:14;16.10;99.80
12726;DHT22;6427;49.754;6.106;2023-07-20T00:41:42;16.00;99.90
12726;DHT22;6427;49.754;6.106;2023-07-20T00:44:09;16.00;99.90
12726;DHT22;6427;49.754;6.106;2023-07-20T00:46:37;16.00;99.90
12726;DHT22;6427;49.754;6.106;2023-07-20T00:49:05;15.90;99.90
12726;DHT22;6427;49.754;6.106;2023-07-20T00:51:32;15.80;99.90
12726;DHT22;6427;49.754;6.106;2023-07-20T00:54:00;16.00;99.90
12726;DHT22;6427;49.754;6.106;2023-07-20T00:56:29;15.90;99.90
12726;DHT22;6427;49.754;6.106;2023-07-20T00:58:56;15.90;99.90
12726;DHT22;6427;49.754;6.106;2023-07-20T01:01:23;15.90;99.90
12726;DHT22;6427;49.754;6.106;2023-07-20T01:03:51;15.80;99.90
12726;DHT22;6427;49.754;6.106;2023-07-20T01:06:29;15.70;99.90
12726;DHT22;6427;49.754;6.106;2023-07-20T01:09:14;15.60;99.90
12726;DHT22;6427;49.754;6.106;2023-07-20T01:11:54;15.80;99.90
12726;DHT22;6427;49.754;6.106;2023-07-20T01:14:21;15.80;99.90
12726;DHT22;6427;49.754;6.106;2023-07-20T01:16:50;15.80;99.90
12726;DHT22;6427;49.754;6.106;2023-07-20T01:19:17;15.70;99.90
12726;DHT22;6427;49.754;6.106;2023-07-20T01:27:55;15.70;99.90
12726;DHT22;6427;49.754;6.106;2023-07-20T01:33:16;15.40;99.90
12726;DHT22;6427;49.754;6.106;2023-07-20T01:35:47;15.30;99.90
12726;DHT22;6427;49.754;6.106;2023-07-20T01:38:12;15.30;99.90
12726;DHT22;6427;49.754;6.106;2023-07-20T01:40:41;15.50;99.90
12726;DHT22;6427;49.754;6.106;2023-07-20T01:43:09;15.40;99.90
12726;DHT22;6427;49.754;6.106;2023-07-20T01:45:37;15.40;99.90
12726;DHT22;6427;49.754;6.106;2023-07-20T01:48:05;15.20;99.90
12726;DHT22;6427;49.754;6.106;2023-07-20T01:50:33;15.20;99.90
12726;DHT22;6427;49.754;6.106;2023-07-20T01:53:01;15.10;99.90
12726;DHT22;6427;49.754;6.106;2023-07-20T01:55:28;15.10;99.90
12726;DHT22;6427;49.754;6.106;2023-07-20T01:57:56;15.00;99.90
12726;DHT22;6427;49.754;6.106;2023-07-20T02:00:24;15.00;99.90
12726;DHT22;6427;49.754;6.106;2023-07-20T02:02:51;15.00;99.90
12726;DHT22;6427;49.754;6.106;2023-07-20T02:05:19;14.90;99.90
12726;DHT22;6427;49.754;6.106;2023-07-20T02:07:46;14.90;99.90
12726;DHT22;6427;49.754;6.106;2023-07-20T02:10:14;14.80;99.90
12726;DHT22;6427;49.754;6.106;2023-07-20T02:12:42;15.00;99.90
12726;DHT22;6427;49.754;6.106;2023-07-20T02:15:10;15.00;99.90
12726;DHT22;6427;49.754;6.106;2023-07-20T02:17:38;15.00;99.90
12726;DHT22;6427;49.754;6.106;2023-07-20T02:20:07;14.80;99.90
12726;DHT22;6427;49.754;6.106;2023-07-20T02:22:34;14.80;99.90
12726;DHT22;6427;49.754;6.106;2023-07-20T02:25:01;14.80;99.90
12726;DHT22;6427;49.754;6.106;2023-07-20T02:27:29;14.70;99.90
12726;DHT22;6427;49.754;6.106;2023-07-20T02:29:57;14.70;99.90
12726;DHT22;6427;49.754;6.106;2023-07-20T02:32:25;15.10;99.90
12726;DHT22;6427;49.754;6.106;2023-07-20T02:34:53;15.00;99.90
12726;DHT22;6427;49.754;6.106;2023-07-20T02:37:20;15.00;99.90
12726;DHT22;6427;49.754;6.106;2023-07-20T02:39:48;14.70;99.90
12726;DHT22;6427;49.754;6.106;2023-07-20T02:42:16;14.70;99.90
12726;DHT22;6427;49.754;6.106;2023-07-20T02:44:44;14.60;99.90
12726;DHT22;6427;49.754;6.106;2023-07-20T02:47:11;14.60;99.90
12726;DHT22;6427;49.754;6.106;2023-07-20T02:49:39;14.50;99.90
12726;DHT22;6427;49.754;6.106;2023-07-20T02:52:06;14.70;99.90
12726;DHT22;6427;49.754;6.106;2023-07-20T02:54:34;14.60;99.90
12726;DHT22;6427;49.754;6.106;2023-07-20T02:57:02;14.80;99.90
12726;DHT22;6427;49.754;6.106;2023-07-20T02:59:29;14.70;99.90
12726;DHT22;6427;49.754;6.106;2023-07-20T03:01:58;14.70;99.90
12726;DHT22;6427;49.754;6.106;2023-07-20T03:04:28;14.70;99.90
12726;DHT22;6427;49.754;6.106;2023-07-20T03:06:56;14.70;99.90
12726;DHT22;6427;49.754;6.106;2023-07-20T03:09:23;14.50;99.90
12726;DHT22;6427;49.754;6.106;2023-07-20T03:11:52;14.30;99.90
12726;DHT22;6427;49.754;6.106;2023-07-20T03:14:19;14.30;99.90
12726;DHT22;6427;49.754;6.106;2023-07-20T03:16:47;14.30;99.90
12726;DHT22;6427;49.754;6.106;2023-07-20T03:19:14;14.20;99.90
12726;DHT22;6427;49.754;6.106;2023-07-20T03:21:42;14.40;99.90
12726;DHT22;6427;49.754;6.106;2023-07-20T03:24:10;14.60;99.90
12726;DHT22;6427;49.754;6.106;2023-07-20T03:26:38;14.60;99.90
12726;DHT22;6427;49.754;6.106;2023-07-20T03:29:06;14.50;99.90
12726;DHT22;6427;49.754;6.106;2023-07-20T03:31:34;14.30;99.90
12726;DHT22;6427;49.754;6.106;2023-07-20T03:34:02;14.20;99.90
12726;DHT22;6427;49.754;6.106;2023-07-20T03:36:30;14.20;99.90
12726;DHT22;6427;49.754;6.106;2023-07-20T03:38:57;14.20;99.90
12726;DHT22;6427;49.754;6.106;2023-07-20T03:41:25;14.10;99.90
12726;DHT22;6427;49.754;6.106;2023-07-20T03:43:53;14.00;99.90
12726;DHT22;6427;49.754;6.106;2023-07-20T03:46:21;14.00;99.90
12726;DHT22;6427;49.754;6.106;2023-07-20T03:48:49;14.00;99.90
12726;DHT22;6427;49.754;6.106;2023-07-20T03:51:16;14.20;99.90
12726;DHT22;6427;49.754;6.106;2023-07-20T03:53:44;14.20;99.90
12726;DHT22;6427;49.754;6.106;2023-07-20T03:56:11;14.10;99.90
12726;DHT22;6427;49.754;6.106;2023-07-20T03:58:39;14.30;99.90
12726;DHT22;6427;49.754;6.106;2023-07-20T04:01:07;14.20;99.90
12726;DHT22;6427;49.754;6.106;2023-07-20T04:03:35;14.00;99.90
12726;DHT22;6427;49.754;6.106;2023-07-20T04:06:02;14.00;99.90
12726;DHT22;6427;49.754;6.106;2023-07-20T04:08:30;13.90;99.90
12726;DHT22;6427;49.754;6.106;2023-07-20T04:10:58;13.90;99.90
12726;DHT22;6427;49.754;6.106;2023-07-20T04:13:25;13.90;99.90
12726;DHT22;6427;49.754;6.106;2023-07-20T04:15:53;13.80;99.90
12726;DHT22;6427;49.754;6.106;2023-07-20T04:18:20;13.80;99.90
12726;DHT22;6427;49.754;6.106;2023-07-20T04:20:48;13.80;99.90
12726;DHT22;6427;49.754;6.106;2023-07-20T04:23:16;13.80;99.90
12726;DHT22;6427;49.754;6.106;2023-07-20T04:25:43;14.00;99.90
12726;DHT22;6427;49.754;6.106;2023-07-20T04:28:11;14.00;99.90
12726;DHT22;6427;49.754;6.106;2023-07-20T04:30:39;13.90;99.90
12726;DHT22;6427;49.754;6.106;2023-07-20T04:33:07;13.90;99.90
12726;DHT22;6427;49.754;6.106;2023-07-20T04:35:47;13.90;99.90
12726;DHT22;6427;49.754;6.106;2023-07-20T04:38:14;13.90;99.90
12726;DHT22;6427;49.754;6.106;2023-07-20T04:40:45;13.90;99.90
12726;DHT22;6427;49.754;6.106;2023-07-20T04:43:16;14.10;99.90
12726;DHT22;6427;49.754;6.106;2023-07-20T04:45:43;14.10;99.90
12726;DHT22;6427;49.754;6.106;2023-07-20T04:48:11;14.10;99.90
12726;DHT22;6427;49.754;6.106;2023-07-20T04:50:41;14.00;99.90
12726;DHT22;6427;49.754;6.106;2023-07-20T04:53:09;14.00;99.90
12726;DHT22;6427;49.754;6.106;2023-07-20T04:55:36;14.00;99.90
12726;DHT22;6427;49.754;6.106;2023-07-20T04:58:03;14.20;99.90
12726;DHT22;6427;49.754;6.106;2023-07-20T05:00:34;14.30;99.90
12726;DHT22;6427;49.754;6.106;2023-07-20T05:03:01;14.20;99.90
12726;DHT22;6427;49.754;6.106;2023-07-20T05:05:30;14.50;99.90
12726;DHT22;6427;49.754;6.106;2023-07-20T05:07:57;14.40;99.90
12726;DHT22;6427;49.754;6.106;2023-07-20T05:10:25;14.50;99.90
12726;DHT22;6427;49.754;6.106;2023-07-20T05:12:52;14.40;99.90
12726;DHT22;6427;49.754;6.106;2023-07-20T05:15:20;14.40;99.90
12726;DHT22;6427;49.754;6.106;2023-07-20T05:17:48;14.40;99.90
12726;DHT22;6427;49.754;6.106;2023-07-20T05:20:16;14.50;99.90
12726;DHT22;6427;49.754;6.106;2023-07-20T05:22:45;14.40;99.90
12726;DHT22;6427;49.754;6.106;2023-07-20T05:25:12;14.50;99.90
12726;DHT22;6427;49.754;6.106;2023-07-20T05:27:40;14.60;99.90
12726;DHT22;6427;49.754;6.106;2023-07-20T05:30:08;14.70;99.90
12726;DHT22;6427;49.754;6.106;2023-07-20T05:32:36;14.60;99.90
12726;DHT22;6427;49.754;6.106;2023-07-20T05:35:03;14.70;99.90
12726;DHT22;6427;49.754;6.106;2023-07-20T05:37:32;14.90;99.90
12726;DHT22;6427;49.754;6.106;2023-07-20T05:40:00;14.90;99.90
12726;DHT22;6427;49.754;6.106;2023-07-20T05:42:28;14.90;99.90
12726;DHT22;6427;49.754;6.106;2023-07-20T05:44:55;15.00;99.90
12726;DHT22;6427;49.754;6.106;2023-07-20T05:47:23;15.00;99.90
12726;DHT22;6427;49.754;6.106;2023-07-20T05:49:51;15.10;99.90
12726;DHT22;6427;49.754;6.106;2023-07-20T05:52:18;15.40;99.90
12726;DHT22;6427;49.754;6.106;2023-07-20T05:54:46;15.40;99.90
12726;DHT22;6427;49.754;6.106;2023-07-20T05:57:13;15.40;99.90
12726;DHT22;6427;49.754;6.106;2023-07-20T05:59:41;15.60;99.90
12726;DHT22;6427;49.754;6.106;2023-07-20T06:02:10;15.60;99.90
12726;DHT22;6427;49.754;6.106;2023-07-20T06:04:38;15.60;99.90
12726;DHT22;6427;49.754;6.106;2023-07-20T06:07:05;15.60;99.90
12726;DHT22;6427;49.754;6.106;2023-07-20T06:09:32;15.90;99.90
12726;DHT22;6427;49.754;6.106;2023-07-20T06:12:00;16.20;99.90
12726;DHT22;6427;49.754;6.106;2023-07-20T06:14:29;16.20;99.90
12726;DHT22;6427;49.754;6.106;2023-07-20T06:16:56;16.10;99.90
12726;DHT22;6427;49.754;6.106;2023-07-20T06:19:24;16.20;99.90
12726;DHT22;6427;49.754;6.106;2023-07-20T06:21:52;16.10;99.90
12726;DHT22;6427;49.754;6.106;2023-07-20T06:24:19;16.40;99.90
12726;DHT22;6427;49.754;6.106;2023-07-20T06:26:47;16.50;99.90
12726;DHT22;6427;49.754;6.106;2023-07-20T06:29:14;16.70;99.90
12726;DHT22;6427;49.754;6.106;2023-07-20T06:31:42;16.80;99.90
12726;DHT22;6427;49.754;6.106;2023-07-20T06:34:10;16.90;99.90
12726;DHT22;6427;49.754;6.106;2023-07-20T06:36:37;16.90;99.90
12726;DHT22;6427;49.754;6.106;2023-07-20T06:39:05;17.00;99.90
12726;DHT22;6427;49.754;6.106;2023-07-20T06:41:32;17.10;99.90
12726;DHT22;6427;49.754;6.106;2023-07-20T06:44:01;17.20;99.90
12726;DHT22;6427;49.754;6.106;2023-07-20T06:46:28;17.10;99.90
12726;DHT22;6427;49.754;6.106;2023-07-20T06:48:57;17.50;99.90
12726;DHT22;6427;49.754;6.106;2023-07-20T06:51:24;17.50;99.90
12726;DHT22;6427;49.754;6.106;2023-07-20T06:53:52;17.80;99.90
12726;DHT22;6427;49.754;6.106;2023-07-20T06:56:19;17.70;99.90
12726;DHT22;6427;49.754;6.106;2023-07-20T06:58:47;17.70;99.90
12726;DHT22;6427;49.754;6.106;2023-07-20T07:01:15;17.70;99.90
12726;DHT22;6427;49.754;6.106;2023-07-20T07:03:42;17.70;99.90
12726;DHT22;6427;49.754;6.106;2023-07-20T07:06:10;17.70;99.90
12726;DHT22;6427;49.754;6.106;2023-07-20T07:08:37;17.70;99.90
12726;DHT22;6427;49.754;6.106;2023-07-20T07:11:05;17.80;99.90
12726;DHT22;6427;49.754;6.106;2023-07-20T07:13:33;17.80;99.90
12726;DHT22;6427;49.754;6.106;2023-07-20T07:16:00;17.80;99.90
12726;DHT22;6427;49.754;6.106;2023-07-20T07:18:28;17.80;99.90
12726;DHT22;6427;49.754;6.106;2023-07-20T07:20:55;17.90;99.90
12726;DHT22;6427;49.754;6.106;2023-07-20T07:23:23;18.00;99.90
12726;DHT22;6427;49.754;6.106;2023-07-20T07:25:51;18.00;99.90
12726;DHT22;6427;49.754;6.106;2023-07-20T07:28:18;18.10;99.90
12726;DHT22;6427;49.754;6.106;2023-07-20T07:30:46;18.20;99.90
12726;DHT22;6427;49.754;6.106;2023-07-20T07:33:13;18.30;99.90
12726;DHT22;6427;49.754;6.106;2023-07-20T07:35:41;18.40;99.90
12726;DHT22;6427;49.754;6.106;2023-07-20T07:38:09;18.60;99.90
12726;DHT22;6427;49.754;6.106;2023-07-20T07:40:36;18.80;99.90
12726;DHT22;6427;49.754;6.106;2023-07-20T07:43:04;18.80;99.90
12726;DHT22;6427;49.754;6.106;2023-07-20T07:45:34;19.00;99.90
12726;DHT22;6427;49.754;6.106;2023-07-20T07:47:59;19.00;99.90
12726;DHT22;6427;49.754;6.106;2023-07-20T07:50:27;19.00;99.90
12726;DHT22;6427;49.754;6.106;2023-07-20T07:52:54;19.00;99.90
12726;DHT22;6427;49.754;6.106;2023-07-20T07:55:22;19.00;99.90
12726;DHT22;6427;49.754;6.106;2023-07-20T07:57:49;19.10;99.90
12726;DHT22;6427;49.754;6.106;2023-07-20T08:00:17;19.10;99.90
12726;DHT22;6427;49.754;6.106;2023-07-20T08:02:45;19.10;99.90
12726;DHT22;6427;49.754;6.106;2023-07-20T08:05:12;19.10;99.90
12726;DHT22;6427;49.754;6.106;2023-07-20T08:07:40;19.10;99.90
12726;DHT22;6427;49.754;6.106;2023-07-20T08:10:08;19.10;99.90
12726;DHT22;6427;49.754;6.106;2023-07-20T08:12:37;19.10;99.90
12726;DHT22;6427;49.754;6.106;2023-07-20T08:15:04;19.10;99.90
12726;DHT22;6427;49.754;6.106;2023-07-20T08:17:33;19.10;99.90
12726;DHT22;6427;49.754;6.106;2023-07-20T08:20:01;19.20;99.90
12726;DHT22;6427;49.754;6.106;2023-07-20T08:22:29;19.20;99.90
12726;DHT22;6427;49.754;6.106;2023-07-20T08:24:56;19.20;99.90
12726;DHT22;6427;49.754;6.106;2023-07-20T08:27:24;19.30;99.90
12726;DHT22;6427;49.754;6.106;2023-07-20T08:29:51;19.40;99.90
12726;DHT22;6427;49.754;6.106;2023-07-20T08:32:19;19.50;99.90
12726;DHT22;6427;49.754;6.106;2023-07-20T08:34:47;19.60;99.90
12726;DHT22;6427;49.754;6.106;2023-07-20T08:37:14;19.70;99.90
12726;DHT22;6427;49.754;6.106;2023-07-20T08:39:42;20.00;99.90
12726;DHT22;6427;49.754;6.106;2023-07-20T08:42:11;20.10;99.90
12726;DHT22;6427;49.754;6.106;2023-07-20T08:44:38;20.00;99.90
12726;DHT22;6427;49.754;6.106;2023-07-20T08:47:06;20.10;99.90
12726;DHT22;6427;49.754;6.106;2023-07-20T08:49:34;20.10;99.90
12726;DHT22;6427;49.754;6.106;2023-07-20T08:52:02;20.30;99.90
12726;DHT22;6427;49.754;6.106;2023-07-20T08:54:30;20.20;99.70
12726;DHT22;6427;49.754;6.106;2023-07-20T08:57:00;20.40;99.40
12726;DHT22;6427;49.754;6.106;2023-07-20T08:59:26;20.40;99.40
12726;DHT22;6427;49.754;6.106;2023-07-20T09:01:55;20.60;98.90
12726;DHT22;6427;49.754;6.106;2023-07-20T09:04:22;20.80;98.80
12726;DHT22;6427;49.754;6.106;2023-07-20T09:06:50;20.80;98.70
12726;DHT22;6427;49.754;6.106;2023-07-20T09:09:18;21.00;97.70
12726;DHT22;6427;49.754;6.106;2023-07-20T09:11:47;21.10;97.20
12726;DHT22;6427;49.754;6.106;2023-07-20T09:14:14;21.10;97.10
12726;DHT22;6427;49.754;6.106;2023-07-20T09:16:54;21.10;96.40
12726;DHT22;6427;49.754;6.106;2023-07-20T09:19:22;21.10;96.40
12726;DHT22;6427;49.754;6.106;2023-07-20T09:21:50;21.10;96.40
12726;DHT22;6427;49.754;6.106;2023-07-20T09:24:18;21.50;95.60
12726;DHT22;6427;49.754;6.106;2023-07-20T09:26:47;21.50;95.40
12726;DHT22;6427;49.754;6.106;2023-07-20T09:29:14;21.40;95.10
12726;DHT22;6427;49.754;6.106;2023-07-20T09:31:42;21.30;94.90
12726;DHT22;6427;49.754;6.106;2023-07-20T09:34:10;21.20;94.90
12726;DHT22;6427;49.754;6.106;2023-07-20T09:36:38;21.20;94.90
12726;DHT22;6427;49.754;6.106;2023-07-20T09:39:06;21.20;95.10
12726;DHT22;6427;49.754;6.106;2023-07-20T09:41:39;21.30;95.20
12726;DHT22;6427;49.754;6.106;2023-07-20T09:44:07;21.60;94.90
12726;DHT22;6427;49.754;6.106;2023-07-20T09:46:49;21.80;93.90
12726;DHT22;6427;49.754;6.106;2023-07-20T09:49:18;21.80;93.30
12726;DHT22;6427;49.754;6.106;2023-07-20T09:51:45;21.80;93.30
12726;DHT22;6427;49.754;6.106;2023-07-20T09:54:13;21.80;93.40
12726;DHT22;6427;49.754;6.106;2023-07-20T09:56:41;21.90;93.70
12726;DHT22;6427;49.754;6.106;2023-07-20T09:59:08;22.30;93.30
12726;DHT22;6427;49.754;6.106;2023-07-20T10:01:36;22.60;92.20
12726;DHT22;6427;49.754;6.106;2023-07-20T10:04:05;22.90;90.90
12726;DHT22;6427;49.754;6.106;2023-07-20T10:06:32;22.80;90.80
12726;DHT22;6427;49.754;6.106;2023-07-20T10:09:03;23.00;88.80
12726;DHT22;6427;49.754;6.106;2023-07-20T10:11:31;22.90;88.30
12726;DHT22;6427;49.754;6.106;2023-07-20T10:13:58;22.80;88.70
12726;DHT22;6427;49.754;6.106;2023-07-20T10:16:28;22.80;88.90
12726;DHT22;6427;49.754;6.106;2023-07-20T10:21:27;22.90;88.80
12726;DHT22;6427;49.754;6.106;2023-07-20T10:23:58;23.10;88.40
12726;DHT22;6427;49.754;6.106;2023-07-20T10:26:26;23.00;88.30
12726;DHT22;6427;49.754;6.106;2023-07-20T10:28:53;23.20;86.70
12726;DHT22;6427;49.754;6.106;2023-07-20T10:31:22;23.50;83.50
12726;DHT22;6427;49.754;6.106;2023-07-20T10:33:50;23.50;83.40
12726;DHT22;6427;49.754;6.106;2023-07-20T10:36:24;23.50;83.40
12726;DHT22;6427;49.754;6.106;2023-07-20T10:41:17;23.60;83.40
12726;DHT22;6427;49.754;6.106;2023-07-20T10:43:44;23.60;83.00
12726;DHT22;6427;49.754;6.106;2023-07-20T10:46:11;23.60;83.20
12726;DHT22;6427;49.754;6.106;2023-07-20T10:49:01;23.70;82.00
12726;DHT22;6427;49.754;6.106;2023-07-20T10:51:28;23.70;80.70
12726;DHT22;6427;49.754;6.106;2023-07-20T10:53:56;23.80;80.20
12726;DHT22;6427;49.754;6.106;2023-07-20T10:56:25;23.70;80.10
12726;DHT22;6427;49.754;6.106;2023-07-20T10:58:55;23.80;79.70
12726;DHT22;6427;49.754;6.106;2023-07-20T11:01:19;24.00;77.90
12726;DHT22;6427;49.754;6.106;2023-07-20T11:03:49;24.10;77.70
12726;DHT22;6427;49.754;6.106;2023-07-20T11:08:56;24.20;77.20
12726;DHT22;6427;49.754;6.106;2023-07-20T11:11:30;24.30;76.80
12726;DHT22;6427;49.754;6.106;2023-07-20T11:16:34;24.60;75.00
12726;DHT22;6427;49.754;6.106;2023-07-20T11:19:02;24.70;74.60
12726;DHT22;6427;49.754;6.106;2023-07-20T11:21:30;24.80;74.10
12726;DHT22;6427;49.754;6.106;2023-07-20T11:23:57;25.00;72.10
12726;DHT22;6427;49.754;6.106;2023-07-20T11:26:24;25.10;71.10
12726;DHT22;6427;49.754;6.106;2023-07-20T11:28:52;25.10;69.80
12726;DHT22;6427;49.754;6.106;2023-07-20T11:31:19;25.10;69.80
12726;DHT22;6427;49.754;6.106;2023-07-20T11:33:47;25.10;69.50
12726;DHT22;6427;49.754;6.106;2023-07-20T11:36:14;25.20;69.50
12726;DHT22;6427;49.754;6.106;2023-07-20T11:38:42;25.20;66.30
12726;DHT22;6427;49.754;6.106;2023-07-20T11:41:12;25.20;64.90
12726;DHT22;6427;49.754;6.106;2023-07-20T11:43:40;25.20;63.60
12726;DHT22;6427;49.754;6.106;2023-07-20T11:46:07;25.10;63.10
12726;DHT22;6427;49.754;6.106;2023-07-20T11:48:35;25.20;62.70
12726;DHT22;6427;49.754;6.106;2023-07-20T11:51:03;25.20;62.10
12726;DHT22;6427;49.754;6.106;2023-07-20T11:53:30;25.20;62.60
12726;DHT22;6427;49.754;6.106;2023-07-20T11:55:58;25.20;63.40
12726;DHT22;6427;49.754;6.106;2023-07-20T11:58:27;25.30;64.60
12726;DHT22;6427;49.754;6.106;2023-07-20T12:00:53;25.60;63.90
12726;DHT22;6427;49.754;6.106;2023-07-20T12:03:21;26.10;59.80
12726;DHT22;6427;49.754;6.106;2023-07-20T12:05:50;26.10;59.00
12726;DHT22;6427;49.754;6.106;2023-07-20T12:08:17;26.10;59.00
12726;DHT22;6427;49.754;6.106;2023-07-20T12:10:45;26.10;58.80
12726;DHT22;6427;49.754;6.106;2023-07-20T12:13:12;26.20;58.50
12726;DHT22;6427;49.754;6.106;2023-07-20T12:15:40;26.30;57.30
12726;DHT22;6427;49.754;6.106;2023-07-20T12:18:08;26.40;57.50
12726;DHT22;6427;49.754;6.106;2023-07-20T12:20:36;26.40;56.60
12726;DHT22;6427;49.754;6.106;2023-07-20T12:23:03;26.50;56.70
12726;DHT22;6427;49.754;6.106;2023-07-20T12:25:46;26.60;55.80
12726;DHT22;6427;49.754;6.106;2023-07-20T12:28:17;26.70;54.60
12726;DHT22;6427;49.754;6.106;2023-07-20T12:30:45;26.80;54.50
12726;DHT22;6427;49.754;6.106;2023-07-20T12:33:12;26.70;54.40
12726;DHT22;6427;49.754;6.106;2023-07-20T12:35:40;26.80;53.30
12726;DHT22;6427;49.754;6.106;2023-07-20T12:38:07;26.90;53.00
12726;DHT22;6427;49.754;6.106;2023-07-20T12:40:35;27.00;52.30
12726;DHT22;6427;49.754;6.106;2023-07-20T12:43:02;27.20;50.30
12726;DHT22;6427;49.754;6.106;2023-07-20T12:45:30;27.10;49.70
12726;DHT22;6427;49.754;6.106;2023-07-20T12:47:57;27.10;49.70
12726;DHT22;6427;49.754;6.106;2023-07-20T12:50:26;27.00;49.60
12726;DHT22;6427;49.754;6.106;2023-07-20T12:52:53;27.20;49.60
12726;DHT22;6427;49.754;6.106;2023-07-20T12:55:20;27.30;49.50
12726;DHT22;6427;49.754;6.106;2023-07-20T12:57:48;27.30;49.10
12726;DHT22;6427;49.754;6.106;2023-07-20T13:00:16;27.40;47.70
12726;DHT22;6427;49.754;6.106;2023-07-20T13:02:43;27.50;47.70
12726;DHT22;6427;49.754;6.106;2023-07-20T13:05:11;27.40;47.70
12726;DHT22;6427;49.754;6.106;2023-07-20T13:07:39;27.30;47.90
12726;DHT22;6427;49.754;6.106;2023-07-20T13:10:06;27.20;47.80
12726;DHT22;6427;49.754;6.106;2023-07-20T13:12:34;27.20;48.00
12726;DHT22;6427;49.754;6.106;2023-07-20T13:15:02;27.30;48.20
12726;DHT22;6427;49.754;6.106;2023-07-20T13:17:29;27.30;48.20
12726;DHT22;6427;49.754;6.106;2023-07-20T13:19:57;27.20;47.40
12726;DHT22;6427;49.754;6.106;2023-07-20T13:22:25;27.20;47.60
12726;DHT22;6427;49.754;6.106;2023-07-20T13:24:52;27.20;47.30
12726;DHT22;6427;49.754;6.106;2023-07-20T13:27:21;27.40;47.30
12726;DHT22;6427;49.754;6.106;2023-07-20T13:29:48;27.40;47.20
12726;DHT22;6427;49.754;6.106;2023-07-20T13:32:16;27.40;47.00
12726;DHT22;6427;49.754;6.106;2023-07-20T13:34:44;27.40;46.00
12726;DHT22;6427;49.754;6.106;2023-07-20T13:37:11;27.40;46.40
12726;DHT22;6427;49.754;6.106;2023-07-20T13:39:39;27.30;47.00
12726;DHT22;6427;49.754;6.106;2023-07-20T13:42:07;27.20;47.20
12726;DHT22;6427;49.754;6.106;2023-07-20T13:44:35;27.20;47.10
12726;DHT22;6427;49.754;6.106;2023-07-20T13:47:02;27.20;46.60
12726;DHT22;6427;49.754;6.106;2023-07-20T13:49:31;27.30;46.30
12726;DHT22;6427;49.754;6.106;2023-07-20T13:51:58;27.30;46.30
12726;DHT22;6427;49.754;6.106;2023-07-20T13:54:26;27.30;47.20
12726;DHT22;6427;49.754;6.106;2023-07-20T13:56:53;27.30;46.90
12726;DHT22;6427;49.754;6.106;2023-07-20T13:59:21;27.20;47.10
12726;DHT22;6427;49.754;6.106;2023-07-20T14:01:48;27.20;47.30
12726;DHT22;6427;49.754;6.106;2023-07-20T14:04:16;27.10;47.20
12726;DHT22;6427;49.754;6.106;2023-07-20T14:06:44;27.00;47.40
12726;DHT22;6427;49.754;6.106;2023-07-20T14:09:11;27.10;46.50
12726;DHT22;6427;49.754;6.106;2023-07-20T14:11:40;26.90;46.40
12726;DHT22;6427;49.754;6.106;2023-07-20T14:14:07;26.90;45.80
12726;DHT22;6427;49.754;6.106;2023-07-20T14:16:35;26.90;45.70
12726;DHT22;6427;49.754;6.106;2023-07-20T14:19:02;26.90;45.90
12726;DHT22;6427;49.754;6.106;2023-07-20T14:21:30;27.20;45.40
12726;DHT22;6427;49.754;6.106;2023-07-20T14:23:58;27.30;44.70
12726;DHT22;6427;49.754;6.106;2023-07-20T14:26:25;27.30;44.60
12726;DHT22;6427;49.754;6.106;2023-07-20T14:28:53;27.30;44.70
12726;DHT22;6427;49.754;6.106;2023-07-20T14:31:20;27.40;44.90
12726;DHT22;6427;49.754;6.106;2023-07-20T14:33:49;27.50;44.20
12726;DHT22;6427;49.754;6.106;2023-07-20T14:36:17;27.60;44.30
12726;DHT22;6427;49.754;6.106;2023-07-20T14:38:45;27.70;44.20
12726;DHT22;6427;49.754;6.106;2023-07-20T14:41:13;27.60;44.10
12726;DHT22;6427;49.754;6.106;2023-07-20T14:43:41;27.60;43.90
12726;DHT22;6427;49.754;6.106;2023-07-20T14:46:08;27.70;43.70
12726;DHT22;6427;49.754;6.106;2023-07-20T14:48:36;27.70;43.60
12726;DHT22;6427;49.754;6.106;2023-07-20T14:51:03;27.60;43.40
12726;DHT22;6427;49.754;6.106;2023-07-20T14:53:31;27.60;43.70
12726;DHT22;6427;49.754;6.106;2023-07-20T14:55:59;27.70;44.10
12726;DHT22;6427;49.754;6.106;2023-07-20T14:58:26;27.90;44.10
12726;DHT22;6427;49.754;6.106;2023-07-20T15:00:54;28.10;43.50
12726;DHT22;6427;49.754;6.106;2023-07-20T15:03:21;28.20;43.20
12726;DHT22;6427;49.754;6.106;2023-07-20T15:05:49;28.30;43.00
12726;DHT22;6427;49.754;6.106;2023-07-20T15:08:17;28.50;43.00
12726;DHT22;6427;49.754;6.106;2023-07-20T15:10:45;28.90;42.30
12726;DHT22;6427;49.754;6.106;2023-07-20T15:13:12;28.90;42.20
12726;DHT22;6427;49.754;6.106;2023-07-20T15:15:40;29.10;42.20
12726;DHT22;6427;49.754;6.106;2023-07-20T15:18:08;29.20;41.70
12726;DHT22;6427;49.754;6.106;2023-07-20T15:20:35;29.30;41.30
12726;DHT22;6427;49.754;6.106;2023-07-20T15:23:03;29.40;40.80
12726;DHT22;6427;49.754;6.106;2023-07-20T15:25:30;29.50;40.50
12726;DHT22;6427;49.754;6.106;2023-07-20T15:27:58;29.60;40.30
12726;DHT22;6427;49.754;6.106;2023-07-20T15:30:26;29.80;40.00
12726;DHT22;6427;49.754;6.106;2023-07-20T15:32:53;29.90;39.90
12726;DHT22;6427;49.754;6.106;2023-07-20T15:35:21;30.00;39.40
12726;DHT22;6427;49.754;6.106;2023-07-20T15:37:48;30.00;38.80
12726;DHT22;6427;49.754;6.106;2023-07-20T15:40:16;30.00;38.40
12726;DHT22;6427;49.754;6.106;2023-07-20T15:42:44;30.00;37.60
12726;DHT22;6427;49.754;6.106;2023-07-20T15:45:11;29.80;37.80
12726;DHT22;6427;49.754;6.106;2023-07-20T15:47:39;29.60;37.90
12726;DHT22;6427;49.754;6.106;2023-07-20T15:50:06;29.30;38.30
12726;DHT22;6427;49.754;6.106;2023-07-20T15:52:34;29.20;38.60
12726;DHT22;6427;49.754;6.106;2023-07-20T15:55:02;29.10;38.90
12726;DHT22;6427;49.754;6.106;2023-07-20T15:57:29;29.00;39.10
12726;DHT22;6427;49.754;6.106;2023-07-20T15:59:57;28.80;39.10
12726;DHT22;6427;49.754;6.106;2023-07-20T16:02:24;28.70;39.50
12726;DHT22;6427;49.754;6.106;2023-07-20T16:04:52;28.80;39.20
12726;DHT22;6427;49.754;6.106;2023-07-20T16:07:20;28.90;39.40
12726;DHT22;6427;49.754;6.106;2023-07-20T16:09:47;29.00;39.30